Agana Heights, GU (96910)

3:57 PM ChST on January 28, 2015 (GMT +1000)
Maite | Change Station
CLOSE
Current Station
Personal Weather Station
Location: Maite, GU
Elevation: 140 ft
Nearby Weather Stations

Elev 140 ft 13.48 °N, 144.76 °E | Updated 10 seconds ago

Partly Cloudy
Partly Cloudy
84.4 °F
Feels Like 93 °F
N
1.0
Wind Variable Wind from SSE
Gusts 8.0 mph

Today
High -- | Low -- °F
--% Chance of Precip.
Yesterday
High -- | Low -- °F
Precip. -- in
6:48 AM 6:19 PM
First Quarter, 61% visible
Pressure 29.78 in
Visibility 10.0 miles
Clouds Few 2100 ft
Heat Index 93 °F
Dew Point 76 °F
Humidity 75%
Rainfall 0.04 in
Snow Depth Not available.
UV 2.6 out of 12
Pollen Not available.
Air Quality Not available.
Flu Activity Not available.
METAR PGUM 280554Z 11006KT 10SM FEW021 29/23 A2980 RMK AO2 SLP083 T02890233 10306 20283 55004

More Conditions Fewer Conditions

Pressure 29.78 in
Visibility 10.0 miles
Clouds Few 2100 ft
Heat Index 93 °F
Dew Point 76 °F
Humidity 75%
Rainfall 0.04 in
Snow Depth Not available.
UV 2.6 out of 12
Pollen Not available.
Air Quality Not available.
Flu Activity Not available.
METAR PGUM 280554Z 11006KT 10SM FEW021 29/23 A2980 RMK AO2 SLP083 T02890233 10306 20283 55004

More Conditions Fewer Conditions

10-Day Weather Forecast

Almanac

Astronomy

Jan. 28, 2015 Rise Set
Actual Time
Civil Twilight
Nautical Twilight
Astronomical Twilight
Moon
Length of Visible Light
Length of Day
Tomorrow will be .
, % of the Moon is Illuminated

Today's Extremes

State Highs State Lows

Community

WunderPhotos

Upload Photos

1,791,103 photos uploaded!

WunderBlogs® & News

Nearby

Air Quality

  Air Quality AQ Index Pollutant
Not available.

Snow Depth

Station Depth Elevation

Earthquake Activity

City Distance Mag. Time & Date
Minimum magnitude displayed is 2.5.

Coastal Water Temperatures

Place Temperature

Nearby Weather Stations